createdAt,value
2023-01-19T00:00:57.445Z,81.02
2023-01-19T00:04:00.282Z,81.26
2023-01-19T00:07:05.256Z,79.84
2023-01-19T00:10:09.481Z,78.91
2023-01-19T00:13:12.345Z,78.37
2023-01-19T00:16:17.589Z,78.54
2023-01-19T00:19:20.493Z,79.39
2023-01-19T00:22:24.618Z,78.61
2023-01-19T00:25:27.394Z,78.78
2023-01-19T00:28:30.205Z,80.38
2023-01-19T00:31:34.096Z,79.42
2023-01-19T00:34:39.542Z,79.04
2023-01-19T00:37:46.030Z,78.68
2023-01-19T00:40:49.243Z,78.83
2023-01-19T00:43:52.054Z,79.21
2023-01-19T00:46:54.914Z,80.35
2023-01-19T00:50:00.117Z,80.15
2023-01-19T00:53:05.567Z,80.76
2023-01-19T00:56:10.449Z,81.49
2023-01-19T00:59:13.492Z,82.79
2023-01-19T01:02:16.757Z,81.16
2023-01-19T01:05:21.014Z,81.12
2023-01-19T01:08:25.930Z,80.06
2023-01-19T01:11:28.670Z,79.95
2023-01-19T01:14:31.580Z,79.03
2023-01-19T01:17:34.508Z,79.02
2023-01-19T01:20:37.430Z,79.25
2023-01-19T01:23:41.878Z,79.61
2023-01-19T01:26:44.763Z,80.80
2023-01-19T01:29:47.630Z,81.32
2023-01-19T01:32:50.774Z,80.98
2023-01-19T01:35:54.129Z,80.81
2023-01-19T01:38:58.528Z,80.91
2023-01-19T01:42:01.466Z,80.88
2023-01-19T01:45:09.052Z,81.15
2023-01-19T01:48:17.519Z,80.40
2023-01-19T01:51:25.075Z,80.01
2023-01-19T01:54:32.157Z,79.06
2023-01-19T01:57:37.927Z,77.67
2023-01-19T02:00:59.378Z,78.24
2023-01-19T02:04:02.391Z,79.26
2023-01-19T02:07:22.681Z,80.20
2023-01-19T02:10:44.505Z,81.18
2023-01-19T02:13:48.027Z,81.38
2023-01-19T02:16:50.877Z,81.81
2023-01-19T02:19:55.957Z,82.69
2023-01-19T02:23:04.146Z,81.75
2023-01-19T02:26:11.125Z,82.28
2023-01-19T02:29:17.342Z,81.99
2023-01-19T02:32:20.205Z,82.95
2023-01-19T02:35:24.321Z,82.95
2023-01-19T02:38:29.267Z,82.01
2023-01-19T02:41:39.859Z,82.18
2023-01-19T02:44:48.251Z,82.39
2023-01-19T02:47:53.203Z,82.74
2023-01-19T02:51:04.426Z,82.21
2023-01-19T02:54:18.556Z,82.37
2023-01-19T02:57:43.696Z,82.40
2023-01-19T03:00:55.234Z,82.27
2023-01-19T03:04:07.758Z,81.19
2023-01-19T03:07:15.509Z,81.22
2023-01-19T03:10:25.219Z,79.19
2023-01-19T03:13:35.577Z,78.96
2023-01-19T03:16:43.344Z,78.28
2023-01-19T03:19:50.482Z,78.32
2023-01-19T03:23:00.559Z,78.44
2023-01-19T03:26:07.350Z,78.36
2023-01-19T03:29:13.426Z,78.30
2023-01-19T03:32:19.085Z,79.28
2023-01-19T03:35:25.742Z,79.20
2023-01-19T03:38:29.792Z,79.21
2023-01-19T03:41:35.227Z,78.73
2023-01-19T03:44:41.994Z,78.96
2023-01-19T03:47:45.499Z,78.37
2023-01-19T03:50:48.675Z,78.30
2023-01-19T03:53:53.649Z,79.78
2023-01-19T03:56:59.059Z,80.33
2023-01-19T04:00:03.200Z,80.11
2023-01-19T04:03:06.524Z,79.77
2023-01-19T04:06:09.884Z,79.66
2023-01-19T04:09:12.774Z,79.71
2023-01-19T04:12:16.184Z,80.11
2023-01-19T04:15:20.533Z,79.49
2023-01-19T04:18:23.279Z,79.93
2023-01-19T04:21:26.022Z,79.89
2023-01-19T04:24:28.839Z,81.16
2023-01-19T04:27:31.522Z,79.47
2023-01-19T04:30:35.618Z,79.18
2023-01-19T04:33:38.337Z,78.98
2023-01-19T04:36:41.180Z,78.74
2023-01-19T04:39:44.092Z,79.11
2023-01-19T04:42:47.246Z,78.91
2023-01-19T04:45:51.882Z,80.93
2023-01-19T04:48:54.705Z,82.53
2023-01-19T04:51:57.445Z,82.62
2023-01-19T04:55:00.325Z,81.53
2023-01-19T04:58:02.986Z,80.92
2023-01-19T05:01:10.145Z,80.18
2023-01-19T05:04:12.917Z,80.94
2023-01-19T05:07:15.650Z,80.32
2023-01-19T05:10:18.740Z,81.30
2023-01-19T05:13:21.577Z,80.47
2023-01-19T05:16:25.897Z,80.65
2023-01-19T05:19:28.790Z,81.48
2023-01-19T05:22:31.622Z,81.47
2023-01-19T05:25:34.398Z,82.67
2023-01-19T05:28:38.034Z,81.67
2023-01-19T05:31:42.524Z,81.37
2023-01-19T05:34:45.804Z,82.17
2023-01-19T05:37:48.477Z,82.69
2023-01-19T05:40:51.346Z,83.02
2023-01-19T05:43:54.467Z,81.40
2023-01-19T05:46:58.575Z,81.23
2023-01-19T05:50:01.422Z,80.67
2023-01-19T05:53:04.403Z,80.47
2023-01-19T05:56:09.326Z,80.91
2023-01-19T05:59:12.802Z,81.91
2023-01-19T06:02:17.036Z,84.17
2023-01-19T06:05:19.921Z,86.01
2023-01-19T06:08:22.597Z,85.45
2023-01-19T06:11:26.134Z,84.85
2023-01-19T06:14:28.987Z,84.67
2023-01-19T06:17:34.529Z,84.84
2023-01-19T06:20:38.067Z,84.80
2023-01-19T06:23:41.057Z,84.48
2023-01-19T06:26:44.322Z,83.47
2023-01-19T06:29:47.651Z,82.88
2023-01-19T06:32:51.993Z,82.95
2023-01-19T06:35:55.670Z,82.12
2023-01-19T06:38:58.918Z,81.95
2023-01-19T06:42:02.156Z,81.51
2023-01-19T06:45:10.692Z,81.85
2023-01-19T06:48:20.017Z,82.48
2023-01-19T06:51:24.120Z,82.21
2023-01-19T06:54:27.244Z,82.49
2023-01-19T06:57:30.014Z,81.97
2023-01-19T07:00:32.876Z,82.71
2023-01-19T07:03:38.575Z,81.83
2023-01-19T07:06:41.597Z,81.62
2023-01-19T07:09:44.332Z,81.12
2023-01-19T07:12:47.462Z,81.17
2023-01-19T07:15:50.416Z,81.63
2023-01-19T07:18:54.512Z,81.43
2023-01-19T07:21:57.885Z,82.03
2023-01-19T07:25:01.713Z,81.91
2023-01-19T07:28:04.719Z,81.77
2023-01-19T07:31:07.656Z,81.86
2023-01-19T07:34:12.633Z,81.89
2023-01-19T07:37:15.538Z,81.33
2023-01-19T07:40:18.723Z,80.29
2023-01-19T07:43:21.410Z,80.97
2023-01-19T07:46:24.748Z,80.66
2023-01-19T07:49:29.809Z,80.35
2023-01-19T07:52:32.563Z,79.64
2023-01-19T07:55:35.727Z,79.22
2023-01-19T07:58:38.614Z,79.06
2023-01-19T08:01:41.769Z,80.46
2023-01-19T08:04:48.821Z,80.90
2023-01-19T08:07:54.066Z,80.98
2023-01-19T08:10:57.079Z,80.49
2023-01-19T08:14:00.252Z,80.49
2023-01-19T08:17:04.138Z,80.18
2023-01-19T08:20:11.464Z,80.45
2023-01-19T08:23:14.447Z,79.43
2023-01-19T08:26:21.268Z,79.87
2023-01-19T08:29:24.187Z,78.11
2023-01-19T08:32:27.355Z,75.24
2023-01-19T08:35:31.586Z,75.36
2023-01-19T08:38:34.381Z,75.09
2023-01-19T08:41:37.531Z,75.61
2023-01-19T08:44:49.752Z,75.16
2023-01-19T08:48:00.074Z,75.37
2023-01-19T08:51:04.566Z,75.12
2023-01-19T08:54:07.429Z,74.47
2023-01-19T08:57:10.171Z,74.40
2023-01-19T09:00:14.335Z,74.51
2023-01-19T09:03:17.159Z,74.42
2023-01-19T09:06:21.455Z,74.13
2023-01-19T09:09:24.180Z,73.13
2023-01-19T09:12:27.331Z,72.27
2023-01-19T09:15:30.155Z,72.55
2023-01-19T09:18:32.910Z,72.05
2023-01-19T09:21:37.700Z,72.38
2023-01-19T09:24:40.715Z,71.68
2023-01-19T09:27:43.816Z,72.09
2023-01-19T09:30:46.647Z,72.09
2023-01-19T09:33:49.443Z,71.33
2023-01-19T09:36:53.819Z,71.48
2023-01-19T09:39:56.715Z,71.07
2023-01-19T09:43:12.604Z,71.76
2023-01-19T09:46:20.280Z,71.58
2023-01-19T09:49:32.736Z,71.56
2023-01-19T09:52:42.408Z,71.31
2023-01-19T09:55:45.681Z,70.38
2023-01-19T09:58:49.794Z,70.26
2023-01-19T10:02:24.817Z,68.76
2023-01-19T10:05:32.761Z,68.55
2023-01-19T10:08:44.099Z,68.60
2023-01-19T10:11:53.456Z,68.94
2023-01-19T10:15:04.077Z,68.25
2023-01-19T10:18:17.836Z,66.70
2023-01-19T10:21:24.759Z,65.86
2023-01-19T10:24:34.183Z,66.27
2023-01-19T10:27:38.908Z,64.54
2023-01-19T10:30:43.828Z,64.50
2023-01-19T10:33:47.123Z,64.80
2023-01-19T10:36:52.528Z,64.76
2023-01-19T10:39:59.228Z,64.16
2023-01-19T10:43:02.579Z,65.22
2023-01-19T10:46:17.542Z,66.12
2023-01-19T10:49:28.518Z,66.53
2023-01-19T10:52:34.336Z,66.41
2023-01-19T10:55:40.932Z,66.66
2023-01-19T10:58:44.003Z,66.16
2023-01-19T11:02:04.347Z,66.67
2023-01-19T11:05:24.219Z,65.83
2023-01-19T11:08:30.998Z,61.93
2023-01-19T11:11:43.755Z,58.50
2023-01-19T11:14:47.915Z,58.08
2023-01-19T11:17:53.583Z,59.36
2023-01-19T11:20:59.089Z,60.27
2023-01-19T11:24:05.395Z,60.22
2023-01-19T11:27:10.004Z,58.64
2023-01-19T11:30:20.483Z,56.89
2023-01-19T11:33:28.258Z,56.60
2023-01-19T11:36:32.846Z,57.83
2023-01-19T11:39:47.766Z,58.94
2023-01-19T11:42:52.201Z,56.99
2023-01-19T11:45:56.010Z,57.09
2023-01-19T11:49:03.906Z,57.13
2023-01-19T11:52:14.692Z,57.59
2023-01-19T11:55:23.642Z,59.66
2023-01-19T11:58:28.276Z,59.87
2023-01-19T12:01:34.191Z,62.86
2023-01-19T12:04:41.470Z,62.54
2023-01-19T12:07:46.938Z,63.95
2023-01-19T12:10:52.052Z,64.62
2023-01-19T12:13:56.180Z,65.36
2023-01-19T12:17:03.532Z,65.67
2023-01-19T12:20:15.226Z,66.66
2023-01-19T12:23:30.350Z,66.69
2023-01-19T12:26:38.192Z,68.84
2023-01-19T12:29:43.995Z,69.49
2023-01-19T12:32:47.086Z,70.41
2023-01-19T12:35:59.559Z,71.35
2023-01-19T12:39:04.243Z,70.81
2023-01-19T12:42:14.580Z,71.82
2023-01-19T12:45:25.696Z,72.10
2023-01-19T12:48:31.607Z,72.66
2023-01-19T12:51:34.687Z,73.85
2023-01-19T12:54:37.807Z,75.18
2023-01-19T12:57:47.681Z,76.80
2023-01-19T13:01:16.885Z,77.88
2023-01-19T13:04:33.569Z,78.96
2023-01-19T13:08:09.315Z,79.41
2023-01-19T13:11:18.259Z,80.17
2023-01-19T13:14:36.655Z,80.81
2023-01-19T13:17:50.950Z,80.93
2023-01-19T13:20:59.723Z,80.69
2023-01-19T13:24:04.527Z,81.74
2023-01-19T13:27:13.457Z,81.05
2023-01-19T13:30:21.513Z,81.20
2023-01-19T13:33:28.213Z,82.29
2023-01-19T13:36:34.112Z,81.20
2023-01-19T13:39:39.222Z,80.67
2023-01-19T13:42:43.832Z,80.87
2023-01-19T13:45:51.740Z,80.31
2023-01-19T13:49:00.620Z,80.41
2023-01-19T13:52:16.852Z,79.18
2023-01-19T13:55:20.596Z,78.99
2023-01-19T13:58:24.381Z,78.84
2023-01-19T14:01:29.488Z,78.85
2023-01-19T14:04:37.440Z,78.98
2023-01-19T14:07:40.775Z,78.30
2023-01-19T14:10:45.909Z,77.70
2023-01-19T14:13:49.051Z,78.07
2023-01-19T14:16:51.789Z,78.66
2023-01-19T14:19:58.088Z,78.38
2023-01-19T14:23:00.821Z,79.15
2023-01-19T14:26:03.615Z,78.81
2023-01-19T14:29:15.312Z,77.56
2023-01-19T14:32:20.481Z,77.37
2023-01-19T14:35:26.315Z,76.92
2023-01-19T14:38:29.320Z,76.90
2023-01-19T14:41:38.942Z,76.87
2023-01-19T14:44:42.185Z,76.57
2023-01-19T14:47:47.474Z,77.39
2023-01-19T14:51:03.502Z,77.09
2023-01-19T14:54:06.751Z,76.85
2023-01-19T14:57:13.591Z,76.37
2023-01-19T15:00:19.753Z,76.76
2023-01-19T15:03:26.845Z,77.10
2023-01-19T15:06:41.284Z,78.12
2023-01-19T15:09:44.173Z,77.89
2023-01-19T15:12:47.477Z,77.73
2023-01-19T15:15:51.255Z,78.62
2023-01-19T15:18:54.211Z,78.84
2023-01-19T15:21:58.292Z,78.89
2023-01-19T15:25:01.027Z,79.07
2023-01-19T15:28:04.196Z,78.93
2023-01-19T15:31:07.373Z,79.38
2023-01-19T15:34:12.961Z,80.58
2023-01-19T15:37:17.591Z,80.94
2023-01-19T15:40:23.258Z,81.58
2023-01-19T15:43:26.014Z,82.56
2023-01-19T15:46:28.754Z,82.99
2023-01-19T15:49:31.967Z,83.75
2023-01-19T15:52:36.105Z,84.33
2023-01-19T15:55:38.925Z,84.37
2023-01-19T15:58:41.888Z,85.17
2023-01-19T16:01:44.925Z,85.05
2023-01-19T16:04:49.606Z,85.47
2023-01-19T16:07:53.726Z,85.08
2023-01-19T16:10:56.580Z,85.64
2023-01-19T16:13:59.725Z,85.45
2023-01-19T16:17:02.539Z,85.78
2023-01-19T16:20:05.948Z,85.91
2023-01-19T16:23:14.867Z,85.79
2023-01-19T16:26:27.559Z,86.15
2023-01-19T16:29:30.868Z,85.51
2023-01-19T16:32:35.151Z,85.53
2023-01-19T16:35:37.906Z,85.73
2023-01-19T16:38:42.077Z,85.79
2023-01-19T16:41:46.112Z,85.44
2023-01-19T16:44:48.995Z,85.37
2023-01-19T16:47:52.303Z,85.60
2023-01-19T16:51:00.317Z,85.63
2023-01-19T16:54:04.999Z,85.74
2023-01-19T16:57:07.872Z,86.13
2023-01-19T17:00:12.308Z,85.86
2023-01-19T17:03:15.327Z,86.45
2023-01-19T17:06:20.585Z,85.81
2023-01-19T17:09:24.894Z,85.58
2023-01-19T17:12:27.734Z,85.67
2023-01-19T17:15:31.732Z,86.04
2023-01-19T17:18:36.207Z,85.85
2023-01-19T17:21:39.067Z,86.20
2023-01-19T17:24:43.762Z,85.20
2023-01-19T17:27:46.560Z,85.30
2023-01-19T17:30:51.308Z,85.16
2023-01-19T17:33:54.280Z,85.28
2023-01-19T17:37:02.862Z,85.16
2023-01-19T17:40:09.678Z,85.01
2023-01-19T17:43:12.586Z,84.57
2023-01-19T17:46:15.497Z,83.94
2023-01-19T17:49:18.384Z,83.75
2023-01-19T17:52:23.647Z,83.22
2023-01-19T17:55:27.944Z,82.45
2023-01-19T17:58:31.384Z,82.73
2023-01-19T18:01:37.838Z,83.05
2023-01-19T18:04:40.940Z,82.69
2023-01-19T18:07:45.566Z,82.84
2023-01-19T18:10:55.525Z,82.98
2023-01-19T18:13:58.448Z,83.00
2023-01-19T18:17:01.219Z,82.96
2023-01-19T18:20:04.652Z,82.88
2023-01-19T18:23:07.595Z,83.33
2023-01-19T18:26:14.232Z,84.06
2023-01-19T18:29:19.291Z,84.26
2023-01-19T18:32:22.283Z,84.70
2023-01-19T18:35:25.253Z,85.13
2023-01-19T18:38:28.338Z,85.66
2023-01-19T18:41:34.264Z,86.35
2023-01-19T18:44:38.339Z,86.12
2023-01-19T18:47:43.913Z,86.37
2023-01-19T18:50:46.820Z,86.83
2023-01-19T18:53:49.779Z,86.55
2023-01-19T18:56:54.981Z,86.94
2023-01-19T18:59:58.511Z,86.68
2023-01-19T19:03:01.918Z,87.22
2023-01-19T19:06:05.185Z,87.25
2023-01-19T19:09:08.677Z,86.70
2023-01-19T19:12:16.069Z,87.11
2023-01-19T19:15:19.449Z,87.29
2023-01-19T19:18:22.740Z,87.35
2023-01-19T19:21:26.272Z,87.84
2023-01-19T19:24:29.252Z,87.49
2023-01-19T19:27:33.924Z,87.92
2023-01-19T19:30:39.089Z,87.38
2023-01-19T19:33:42.406Z,87.62
2023-01-19T19:36:45.500Z,87.99
2023-01-19T19:39:49.176Z,87.19
2023-01-19T19:42:53.545Z,87.79
2023-01-19T19:46:00.477Z,87.81
2023-01-19T19:49:03.352Z,88.12
2023-01-19T19:52:06.365Z,87.41
2023-01-19T19:55:10.936Z,86.64
2023-01-19T19:58:15.062Z,86.76
2023-01-19T20:01:19.985Z,87.18
2023-01-19T20:04:25.385Z,87.91
2023-01-19T20:07:28.332Z,87.59
2023-01-19T20:10:32.064Z,87.93
2023-01-19T20:13:40.021Z,87.39
2023-01-19T20:16:43.292Z,87.54
2023-01-19T20:19:47.562Z,87.82
2023-01-19T20:22:50.496Z,87.20
2023-01-19T20:25:53.693Z,87.60
2023-01-19T20:29:02.534Z,87.46
2023-01-19T20:32:05.599Z,87.21
2023-01-19T20:35:08.590Z,87.26
2023-01-19T20:38:11.711Z,86.88
2023-01-19T20:41:15.360Z,87.57
2023-01-19T20:44:22.066Z,87.46
2023-01-19T20:47:25.884Z,87.39
2023-01-19T20:50:28.756Z,87.53
2023-01-19T20:53:32.443Z,87.15
2023-01-19T20:56:35.311Z,87.22
2023-01-19T20:59:40.889Z,87.45
2023-01-19T21:02:43.874Z,87.29
2023-01-19T21:05:48.360Z,87.52
2023-01-19T21:08:51.213Z,87.27
2023-01-19T21:11:55.930Z,87.07
2023-01-19T21:15:01.658Z,86.90
2023-01-19T21:18:04.505Z,86.95
2023-01-19T21:21:10.694Z,87.21
2023-01-19T21:24:17.875Z,86.76
2023-01-19T21:27:20.723Z,87.31
2023-01-19T21:30:25.293Z,87.44
2023-01-19T21:33:28.333Z,87.79
2023-01-19T21:36:31.159Z,87.93
2023-01-19T21:39:33.910Z,87.97
2023-01-19T21:42:36.693Z,88.06
2023-01-19T21:45:43.021Z,88.11
2023-01-19T21:48:46.830Z,88.45
2023-01-19T21:51:50.461Z,88.18
2023-01-19T21:54:54.088Z,88.59
2023-01-19T21:57:56.891Z,88.53
2023-01-19T22:01:01.862Z,87.80
2023-01-19T22:04:04.900Z,87.23
2023-01-19T22:07:07.818Z,87.25
2023-01-19T22:10:12.133Z,86.61
2023-01-19T22:13:14.987Z,85.79
2023-01-19T22:16:22.303Z,85.20
2023-01-19T22:19:25.727Z,86.06
2023-01-19T22:22:28.684Z,85.83
2023-01-19T22:25:36.344Z,85.86
2023-01-19T22:28:39.588Z,85.20
2023-01-19T22:31:45.772Z,84.88
2023-01-19T22:34:48.757Z,84.60
2023-01-19T22:37:51.564Z,84.18
2023-01-19T22:40:54.323Z,84.97
2023-01-19T22:43:59.366Z,85.08
2023-01-19T22:47:03.422Z,84.30
2023-01-19T22:50:07.327Z,84.29
2023-01-19T22:53:10.476Z,85.06
2023-01-19T22:56:14.934Z,84.94
2023-01-19T22:59:17.742Z,86.02
2023-01-19T23:02:21.860Z,85.98
2023-01-19T23:05:24.670Z,87.06
2023-01-19T23:08:27.412Z,87.07
2023-01-19T23:11:35.695Z,87.42
2023-01-19T23:14:39.129Z,88.16
2023-01-19T23:17:47.202Z,87.56
2023-01-19T23:20:50.248Z,87.98
2023-01-19T23:23:55.211Z,88.08
2023-01-19T23:26:57.996Z,88.35
2023-01-19T23:30:00.691Z,88.57
2023-01-19T23:33:05.066Z,88.82
2023-01-19T23:36:09.058Z,89.11
2023-01-19T23:39:14.973Z,89.35
2023-01-19T23:42:17.661Z,89.26
2023-01-19T23:45:20.420Z,89.18
2023-01-19T23:48:24.591Z,89.56
2023-01-19T23:51:29.606Z,89.71
2023-01-19T23:54:32.322Z,89.62
2023-01-19T23:57:35.043Z,89.34
